Stoke Poges, United Kingdom
Current Conditions -  °F | °C
As of 5:20 PM on Friday 19 Dec 2014 (Local Time) from EGLL Reporting Station
Clear Clear  
Wind Chill: 38°   Ceiling: Unl
Heat Index: 45°   Visibility: 6mi
Dew Point: 36°   Wind: 14mph
Humidity: 71%   Direction: 270°W
Pressure: 30.12"   Gusts: NA
Location:  51.54°N, 0.59°W
Report Text: EGLL 191720Z 27012KT CAVOK 07/02 Q1020 NOSIG
Loading
Personal Weather Stations






























Interactive Weather Map New forecast layout! Learn more

10-Day Weather Forecast

Advertisements
Track Severe Weather on mobile